sensor_id;sensor_type;location;lat;lon;timestamp;P1;durP1;ratioP1;P2;durP2;ratioP2
24467;SDS011;12634;50.852;5.676;2022-12-29T00:02:04;0.40;;;0.40;;
24467;SDS011;12634;50.852;5.676;2022-12-29T00:04:32;0.63;;;0.32;;
24467;SDS011;12634;50.852;5.676;2022-12-29T00:06:59;1.02;;;0.40;;
24467;SDS011;12634;50.852;5.676;2022-12-29T00:09:26;0.35;;;0.35;;
24467;SDS011;12634;50.852;5.676;2022-12-29T00:11:53;0.55;;;0.40;;
24467;SDS011;12634;50.852;5.676;2022-12-29T00:14:22;1.63;;;0.40;;
24467;SDS011;12634;50.852;5.676;2022-12-29T00:17:07;0.47;;;0.30;;
24467;SDS011;12634;50.852;5.676;2022-12-29T00:19:34;0.60;;;0.40;;
24467;SDS011;12634;50.852;5.676;2022-12-29T00:22:19;1.77;;;0.50;;
24467;SDS011;12634;50.852;5.676;2022-12-29T00:25:04;0.77;;;0.40;;
24467;SDS011;12634;50.852;5.676;2022-12-29T00:27:51;0.60;;;0.32;;
24467;SDS011;12634;50.852;5.676;2022-12-29T00:30:37;0.43;;;0.30;;
24467;SDS011;12634;50.852;5.676;2022-12-29T00:33:22;0.40;;;0.30;;
24467;SDS011;12634;50.852;5.676;2022-12-29T00:36:11;1.70;;;0.50;;
24467;SDS011;12634;50.852;5.676;2022-12-29T00:38:43;1.13;;;0.40;;
24467;SDS011;12634;50.852;5.676;2022-12-29T00:41:30;0.40;;;0.28;;
24467;SDS011;12634;50.852;5.676;2022-12-29T00:44:14;1.02;;;0.50;;
24467;SDS011;12634;50.852;5.676;2022-12-29T00:46:43;0.20;;;0.20;;
24467;SDS011;12634;50.852;5.676;2022-12-29T00:49:10;1.00;;;0.40;;
24467;SDS011;12634;50.852;5.676;2022-12-29T00:51:56;0.65;;;0.40;;
24467;SDS011;12634;50.852;5.676;2022-12-29T00:54:25;1.58;;;0.50;;
24467;SDS011;12634;50.852;5.676;2022-12-29T00:56:52;1.15;;;0.47;;
24467;SDS011;12634;50.852;5.676;2022-12-29T00:59:20;1.67;;;0.75;;
24467;SDS011;12634;50.852;5.676;2022-12-29T01:01:50;0.75;;;0.30;;
24467;SDS011;12634;50.852;5.676;2022-12-29T01:04:18;1.85;;;0.50;;
24467;SDS011;12634;50.852;5.676;2022-12-29T01:06:45;0.93;;;0.40;;
24467;SDS011;12634;50.852;5.676;2022-12-29T01:09:13;2.08;;;0.60;;
24467;SDS011;12634;50.852;5.676;2022-12-29T01:11:57;2.03;;;0.40;;
24467;SDS011;12634;50.852;5.676;2022-12-29T01:14:25;1.20;;;0.50;;
24467;SDS011;12634;50.852;5.676;2022-12-29T01:16:54;1.15;;;0.52;;
24467;SDS011;12634;50.852;5.676;2022-12-29T01:19:22;1.88;;;0.80;;
24467;SDS011;12634;50.852;5.676;2022-12-29T01:21:50;4.05;;;0.70;;
24467;SDS011;12634;50.852;5.676;2022-12-29T01:24:18;1.30;;;0.50;;
24467;SDS011;12634;50.852;5.676;2022-12-29T01:26:46;2.33;;;0.60;;
24467;SDS011;12634;50.852;5.676;2022-12-29T01:29:14;1.02;;;0.50;;
24467;SDS011;12634;50.852;5.676;2022-12-29T01:31:41;1.92;;;0.70;;
24467;SDS011;12634;50.852;5.676;2022-12-29T01:34:10;2.63;;;0.70;;
24467;SDS011;12634;50.852;5.676;2022-12-29T01:36:38;1.58;;;0.57;;
24467;SDS011;12634;50.852;5.676;2022-12-29T01:39:05;1.25;;;0.70;;
24467;SDS011;12634;50.852;5.676;2022-12-29T01:41:32;0.80;;;0.57;;
24467;SDS011;12634;50.852;5.676;2022-12-29T01:44:00;2.47;;;0.77;;
24467;SDS011;12634;50.852;5.676;2022-12-29T01:46:30;1.35;;;0.52;;
24467;SDS011;12634;50.852;5.676;2022-12-29T01:49:03;2.30;;;0.80;;
24467;SDS011;12634;50.852;5.676;2022-12-29T01:51:38;1.67;;;0.50;;
24467;SDS011;12634;50.852;5.676;2022-12-29T01:54:10;1.52;;;0.40;;
24467;SDS011;12634;50.852;5.676;2022-12-29T01:56:40;2.28;;;0.77;;
24467;SDS011;12634;50.852;5.676;2022-12-29T01:59:08;2.17;;;0.60;;
24467;SDS011;12634;50.852;5.676;2022-12-29T02:01:39;2.25;;;0.88;;
24467;SDS011;12634;50.852;5.676;2022-12-29T02:04:07;2.60;;;0.93;;
24467;SDS011;12634;50.852;5.676;2022-12-29T02:06:39;1.17;;;0.43;;
24467;SDS011;12634;50.852;5.676;2022-12-29T02:09:12;1.92;;;0.73;;
24467;SDS011;12634;50.852;5.676;2022-12-29T02:11:39;0.82;;;0.50;;
24467;SDS011;12634;50.852;5.676;2022-12-29T02:14:08;1.13;;;0.55;;
24467;SDS011;12634;50.852;5.676;2022-12-29T02:16:40;2.65;;;0.60;;
24467;SDS011;12634;50.852;5.676;2022-12-29T02:28:30;1.38;;;0.80;;
24467;SDS011;12634;50.852;5.676;2022-12-29T02:31:16;2.65;;;0.90;;
24467;SDS011;12634;50.852;5.676;2022-12-29T02:33:50;1.20;;;0.50;;
24467;SDS011;12634;50.852;5.676;2022-12-29T02:36:28;0.95;;;0.68;;
24467;SDS011;12634;50.852;5.676;2022-12-29T02:39:04;1.33;;;0.43;;
24467;SDS011;12634;50.852;5.676;2022-12-29T02:41:39;1.13;;;0.50;;
24467;SDS011;12634;50.852;5.676;2022-12-29T02:44:12;2.25;;;1.00;;
24467;SDS011;12634;50.852;5.676;2022-12-29T02:46:50;1.65;;;0.60;;
24467;SDS011;12634;50.852;5.676;2022-12-29T02:49:22;2.45;;;0.50;;
24467;SDS011;12634;50.852;5.676;2022-12-29T02:51:58;2.45;;;0.60;;
24467;SDS011;12634;50.852;5.676;2022-12-29T02:54:28;2.63;;;0.65;;
24467;SDS011;12634;50.852;5.676;2022-12-29T02:57:09;1.50;;;0.45;;
24467;SDS011;12634;50.852;5.676;2022-12-29T02:59:38;0.85;;;0.30;;
24467;SDS011;12634;50.852;5.676;2022-12-29T03:02:14;2.30;;;0.50;;
24467;SDS011;12634;50.852;5.676;2022-12-29T03:07:46;1.98;;;0.35;;
24467;SDS011;12634;50.852;5.676;2022-12-29T03:10:25;0.93;;;0.40;;
24467;SDS011;12634;50.852;5.676;2022-12-29T03:13:02;0.80;;;0.40;;
24467;SDS011;12634;50.852;5.676;2022-12-29T03:15:53;0.77;;;0.50;;
24467;SDS011;12634;50.852;5.676;2022-12-29T03:18:32;1.45;;;0.40;;
24467;SDS011;12634;50.852;5.676;2022-12-29T03:21:06;0.32;;;0.32;;
24467;SDS011;12634;50.852;5.676;2022-12-29T03:23:38;0.82;;;0.50;;
24467;SDS011;12634;50.852;5.676;2022-12-29T03:26:08;1.95;;;0.40;;
24467;SDS011;12634;50.852;5.676;2022-12-29T03:28:39;1.23;;;0.52;;
24467;SDS011;12634;50.852;5.676;2022-12-29T03:31:11;1.95;;;0.47;;
24467;SDS011;12634;50.852;5.676;2022-12-29T03:33:41;2.45;;;0.63;;
24467;SDS011;12634;50.852;5.676;2022-12-29T03:36:11;1.58;;;0.60;;
24467;SDS011;12634;50.852;5.676;2022-12-29T03:38:50;4.57;;;0.80;;
24467;SDS011;12634;50.852;5.676;2022-12-29T03:41:24;1.83;;;0.57;;
24467;SDS011;12634;50.852;5.676;2022-12-29T03:43:56;2.25;;;0.50;;
24467;SDS011;12634;50.852;5.676;2022-12-29T03:46:23;0.47;;;0.35;;
24467;SDS011;12634;50.852;5.676;2022-12-29T03:48:52;0.88;;;0.40;;
24467;SDS011;12634;50.852;5.676;2022-12-29T03:51:19;1.42;;;0.60;;
24467;SDS011;12634;50.852;5.676;2022-12-29T03:53:47;2.08;;;0.45;;
24467;SDS011;12634;50.852;5.676;2022-12-29T03:56:14;0.85;;;0.40;;
24467;SDS011;12634;50.852;5.676;2022-12-29T03:58:41;0.73;;;0.47;;
24467;SDS011;12634;50.852;5.676;2022-12-29T04:01:08;2.05;;;0.60;;
24467;SDS011;12634;50.852;5.676;2022-12-29T04:03:36;0.73;;;0.40;;
24467;SDS011;12634;50.852;5.676;2022-12-29T04:06:05;2.80;;;0.70;;
24467;SDS011;12634;50.852;5.676;2022-12-29T04:08:33;1.80;;;0.40;;
24467;SDS011;12634;50.852;5.676;2022-12-29T04:11:00;2.03;;;0.70;;
24467;SDS011;12634;50.852;5.676;2022-12-29T04:13:27;1.17;;;0.50;;
24467;SDS011;12634;50.852;5.676;2022-12-29T04:15:54;1.88;;;0.60;;
24467;SDS011;12634;50.852;5.676;2022-12-29T04:18:21;1.17;;;0.50;;
24467;SDS011;12634;50.852;5.676;2022-12-29T04:20:49;2.33;;;0.70;;
24467;SDS011;12634;50.852;5.676;2022-12-29T04:23:31;2.25;;;0.50;;
24467;SDS011;12634;50.852;5.676;2022-12-29T04:26:00;4.22;;;0.55;;
24467;SDS011;12634;50.852;5.676;2022-12-29T04:28:27;1.90;;;0.40;;
24467;SDS011;12634;50.852;5.676;2022-12-29T04:30:55;4.38;;;0.60;;
24467;SDS011;12634;50.852;5.676;2022-12-29T04:33:22;0.90;;;0.30;;
24467;SDS011;12634;50.852;5.676;2022-12-29T04:35:49;2.17;;;0.50;;
24467;SDS011;12634;50.852;5.676;2022-12-29T04:38:18;1.88;;;0.55;;
24467;SDS011;12634;50.852;5.676;2022-12-29T04:40:46;0.98;;;0.63;;
24467;SDS011;12634;50.852;5.676;2022-12-29T04:43:14;1.52;;;0.45;;
24467;SDS011;12634;50.852;5.676;2022-12-29T04:45:42;2.50;;;0.60;;
24467;SDS011;12634;50.852;5.676;2022-12-29T04:48:10;2.03;;;0.50;;
24467;SDS011;12634;50.852;5.676;2022-12-29T04:50:38;2.80;;;0.63;;
24467;SDS011;12634;50.852;5.676;2022-12-29T04:53:05;2.17;;;0.80;;
24467;SDS011;12634;50.852;5.676;2022-12-29T04:55:33;1.80;;;0.52;;
24467;SDS011;12634;50.852;5.676;2022-12-29T04:58:02;1.30;;;0.52;;
24467;SDS011;12634;50.852;5.676;2022-12-29T05:00:29;2.78;;;0.40;;
24467;SDS011;12634;50.852;5.676;2022-12-29T05:02:56;5.18;;;0.68;;
24467;SDS011;12634;50.852;5.676;2022-12-29T05:05:24;2.03;;;0.68;;
24467;SDS011;12634;50.852;5.676;2022-12-29T05:07:51;1.60;;;0.45;;
24467;SDS011;12634;50.852;5.676;2022-12-29T05:10:18;2.75;;;0.60;;
24467;SDS011;12634;50.852;5.676;2022-12-29T05:12:45;2.15;;;0.60;;
24467;SDS011;12634;50.852;5.676;2022-12-29T05:15:14;2.92;;;0.60;;
24467;SDS011;12634;50.852;5.676;2022-12-29T05:17:41;2.70;;;0.70;;
24467;SDS011;12634;50.852;5.676;2022-12-29T05:20:08;2.03;;;0.60;;
24467;SDS011;12634;50.852;5.676;2022-12-29T05:22:36;3.90;;;0.80;;
24467;SDS011;12634;50.852;5.676;2022-12-29T05:25:04;2.45;;;0.40;;
24467;SDS011;12634;50.852;5.676;2022-12-29T05:27:31;3.55;;;0.60;;
24467;SDS011;12634;50.852;5.676;2022-12-29T05:29:58;2.50;;;0.70;;
24467;SDS011;12634;50.852;5.676;2022-12-29T05:32:27;2.40;;;0.55;;
24467;SDS011;12634;50.852;5.676;2022-12-29T05:34:54;3.30;;;0.65;;
24467;SDS011;12634;50.852;5.676;2022-12-29T05:37:21;2.75;;;0.50;;
24467;SDS011;12634;50.852;5.676;2022-12-29T05:39:48;4.93;;;0.73;;
24467;SDS011;12634;50.852;5.676;2022-12-29T05:42:15;2.97;;;0.75;;
24467;SDS011;12634;50.852;5.676;2022-12-29T05:44:43;3.28;;;0.68;;
24467;SDS011;12634;50.852;5.676;2022-12-29T05:47:10;1.80;;;0.55;;
24467;SDS011;12634;50.852;5.676;2022-12-29T05:49:38;3.85;;;0.85;;
24467;SDS011;12634;50.852;5.676;2022-12-29T05:52:05;5.10;;;0.60;;
24467;SDS011;12634;50.852;5.676;2022-12-29T05:54:33;3.10;;;1.02;;
24467;SDS011;12634;50.852;5.676;2022-12-29T05:57:00;3.00;;;0.50;;
24467;SDS011;12634;50.852;5.676;2022-12-29T05:59:27;4.57;;;0.88;;
24467;SDS011;12634;50.852;5.676;2022-12-29T06:01:54;2.72;;;0.57;;
24467;SDS011;12634;50.852;5.676;2022-12-29T06:04:21;3.20;;;0.73;;
24467;SDS011;12634;50.852;5.676;2022-12-29T06:06:50;3.47;;;0.90;;
24467;SDS011;12634;50.852;5.676;2022-12-29T06:09:17;5.78;;;0.75;;
24467;SDS011;12634;50.852;5.676;2022-12-29T06:11:44;2.42;;;0.40;;
24467;SDS011;12634;50.852;5.676;2022-12-29T06:14:11;4.28;;;0.90;;
24467;SDS011;12634;50.852;5.676;2022-12-29T06:16:38;3.03;;;0.70;;
24467;SDS011;12634;50.852;5.676;2022-12-29T06:19:07;3.58;;;0.85;;
24467;SDS011;12634;50.852;5.676;2022-12-29T06:21:34;2.17;;;0.70;;
24467;SDS011;12634;50.852;5.676;2022-12-29T06:24:04;5.05;;;0.70;;
24467;SDS011;12634;50.852;5.676;2022-12-29T06:26:31;3.58;;;0.73;;
24467;SDS011;12634;50.852;5.676;2022-12-29T06:28:58;4.03;;;1.05;;
24467;SDS011;12634;50.852;5.676;2022-12-29T06:31:26;4.30;;;0.95;;
24467;SDS011;12634;50.852;5.676;2022-12-29T06:33:54;5.13;;;0.70;;
24467;SDS011;12634;50.852;5.676;2022-12-29T06:36:21;3.60;;;0.70;;
24467;SDS011;12634;50.852;5.676;2022-12-29T06:38:48;3.85;;;0.60;;
24467;SDS011;12634;50.852;5.676;2022-12-29T06:41:18;3.72;;;0.70;;
24467;SDS011;12634;50.852;5.676;2022-12-29T06:43:46;3.40;;;0.80;;
24467;SDS011;12634;50.852;5.676;2022-12-29T06:46:13;3.00;;;0.70;;
24467;SDS011;12634;50.852;5.676;2022-12-29T06:48:40;3.38;;;0.80;;
24467;SDS011;12634;50.852;5.676;2022-12-29T06:51:08;1.92;;;0.57;;
24467;SDS011;12634;50.852;5.676;2022-12-29T06:53:35;4.28;;;0.70;;
24467;SDS011;12634;50.852;5.676;2022-12-29T06:56:02;7.90;;;0.95;;
24467;SDS011;12634;50.852;5.676;2022-12-29T06:58:31;3.95;;;0.65;;
24467;SDS011;12634;50.852;5.676;2022-12-29T07:00:59;3.40;;;0.90;;
24467;SDS011;12634;50.852;5.676;2022-12-29T07:03:26;4.65;;;0.98;;
24467;SDS011;12634;50.852;5.676;2022-12-29T07:05:53;4.13;;;0.80;;
24467;SDS011;12634;50.852;5.676;2022-12-29T07:08:20;5.00;;;0.90;;
24467;SDS011;12634;50.852;5.676;2022-12-29T07:10:47;4.05;;;0.80;;
24467;SDS011;12634;50.852;5.676;2022-12-29T07:13:14;6.57;;;1.10;;
24467;SDS011;12634;50.852;5.676;2022-12-29T07:15:43;5.65;;;0.80;;
24467;SDS011;12634;50.852;5.676;2022-12-29T07:18:10;5.28;;;0.80;;
24467;SDS011;12634;50.852;5.676;2022-12-29T07:20:38;3.65;;;0.90;;
24467;SDS011;12634;50.852;5.676;2022-12-29T07:23:05;3.72;;;0.90;;
24467;SDS011;12634;50.852;5.676;2022-12-29T07:25:32;5.53;;;0.85;;
24467;SDS011;12634;50.852;5.676;2022-12-29T07:28:01;5.38;;;0.70;;
24467;SDS011;12634;50.852;5.676;2022-12-29T07:30:28;5.60;;;0.93;;
24467;SDS011;12634;50.852;5.676;2022-12-29T07:32:56;3.88;;;0.65;;
24467;SDS011;12634;50.852;5.676;2022-12-29T07:35:24;6.40;;;1.27;;
24467;SDS011;12634;50.852;5.676;2022-12-29T07:37:51;2.10;;;0.82;;
24467;SDS011;12634;50.852;5.676;2022-12-29T07:40:18;4.63;;;0.93;;
24467;SDS011;12634;50.852;5.676;2022-12-29T07:42:45;5.10;;;1.30;;
24467;SDS011;12634;50.852;5.676;2022-12-29T07:45:13;2.20;;;0.70;;
24467;SDS011;12634;50.852;5.676;2022-12-29T07:47:40;6.63;;;0.98;;
24467;SDS011;12634;50.852;5.676;2022-12-29T07:50:09;7.55;;;0.90;;
24467;SDS011;12634;50.852;5.676;2022-12-29T07:52:36;3.90;;;0.93;;
24467;SDS011;12634;50.852;5.676;2022-12-29T07:55:04;4.43;;;1.27;;
24467;SDS011;12634;50.852;5.676;2022-12-29T07:57:32;5.10;;;1.10;;
24467;SDS011;12634;50.852;5.676;2022-12-29T07:59:59;4.20;;;0.90;;
24467;SDS011;12634;50.852;5.676;2022-12-29T08:02:26;6.93;;;1.48;;
24467;SDS011;12634;50.852;5.676;2022-12-29T08:04:54;4.07;;;1.30;;
24467;SDS011;12634;50.852;5.676;2022-12-29T08:07:23;6.57;;;1.80;;
24467;SDS011;12634;50.852;5.676;2022-12-29T08:09:50;5.25;;;1.13;;
24467;SDS011;12634;50.852;5.676;2022-12-29T08:12:17;7.60;;;1.23;;
24467;SDS011;12634;50.852;5.676;2022-12-29T08:14:45;4.85;;;1.80;;
24467;SDS011;12634;50.852;5.676;2022-12-29T08:17:12;6.88;;;1.48;;
24467;SDS011;12634;50.852;5.676;2022-12-29T08:19:39;5.45;;;1.45;;
24467;SDS011;12634;50.852;5.676;2022-12-29T08:22:07;3.42;;;0.90;;
24467;SDS011;12634;50.852;5.676;2022-12-29T08:24:36;5.13;;;1.55;;
24467;SDS011;12634;50.852;5.676;2022-12-29T08:27:03;6.63;;;1.20;;
24467;SDS011;12634;50.852;5.676;2022-12-29T08:29:30;6.78;;;1.20;;
24467;SDS011;12634;50.852;5.676;2022-12-29T08:31:58;4.07;;;1.17;;
24467;SDS011;12634;50.852;5.676;2022-12-29T08:34:25;6.28;;;1.48;;
24467;SDS011;12634;50.852;5.676;2022-12-29T08:36:52;5.43;;;1.20;;
24467;SDS011;12634;50.852;5.676;2022-12-29T08:39:19;4.78;;;0.90;;
24467;SDS011;12634;50.852;5.676;2022-12-29T08:41:48;7.03;;;1.40;;
24467;SDS011;12634;50.852;5.676;2022-12-29T08:44:15;7.50;;;1.08;;
24467;SDS011;12634;50.852;5.676;2022-12-29T08:46:43;3.75;;;0.70;;
24467;SDS011;12634;50.852;5.676;2022-12-29T08:49:10;6.10;;;1.15;;
24467;SDS011;12634;50.852;5.676;2022-12-29T08:51:37;5.30;;;1.13;;
24467;SDS011;12634;50.852;5.676;2022-12-29T08:54:05;5.47;;;1.20;;
24467;SDS011;12634;50.852;5.676;2022-12-29T08:56:32;5.20;;;1.00;;
24467;SDS011;12634;50.852;5.676;2022-12-29T08:59:01;3.85;;;1.08;;
24467;SDS011;12634;50.852;5.676;2022-12-29T09:01:28;6.18;;;1.15;;
24467;SDS011;12634;50.852;5.676;2022-12-29T09:03:56;5.53;;;1.00;;
24467;SDS011;12634;50.852;5.676;2022-12-29T09:06:23;4.25;;;1.00;;
24467;SDS011;12634;50.852;5.676;2022-12-29T09:08:50;4.50;;;0.88;;
24467;SDS011;12634;50.852;5.676;2022-12-29T09:11:21;7.50;;;1.17;;
24467;SDS011;12634;50.852;5.676;2022-12-29T09:13:50;5.30;;;1.33;;
24467;SDS011;12634;50.852;5.676;2022-12-29T09:16:20;6.28;;;0.90;;
24467;SDS011;12634;50.852;5.676;2022-12-29T09:18:48;3.97;;;0.80;;
24467;SDS011;12634;50.852;5.676;2022-12-29T09:21:15;4.93;;;0.88;;
24467;SDS011;12634;50.852;5.676;2022-12-29T09:23:43;7.30;;;2.00;;
24467;SDS011;12634;50.852;5.676;2022-12-29T09:26:10;5.28;;;0.98;;
24467;SDS011;12634;50.852;5.676;2022-12-29T09:28:37;8.05;;;1.60;;
24467;SDS011;12634;50.852;5.676;2022-12-29T09:31:05;6.10;;;0.90;;
24467;SDS011;12634;50.852;5.676;2022-12-29T09:33:34;7.28;;;1.15;;
24467;SDS011;12634;50.852;5.676;2022-12-29T09:36:01;9.20;;;1.42;;
24467;SDS011;12634;50.852;5.676;2022-12-29T09:38:29;11.27;;;1.40;;
24467;SDS011;12634;50.852;5.676;2022-12-29T09:40:59;7.75;;;1.45;;
24467;SDS011;12634;50.852;5.676;2022-12-29T09:46:25;3.80;;;0.95;;
24467;SDS011;12634;50.852;5.676;2022-12-29T09:48:58;5.60;;;1.00;;
24467;SDS011;12634;50.852;5.676;2022-12-29T09:51:34;7.60;;;1.42;;
24467;SDS011;12634;50.852;5.676;2022-12-29T09:54:12;5.22;;;1.33;;
24467;SDS011;12634;50.852;5.676;2022-12-29T09:56:49;5.15;;;1.30;;
24467;SDS011;12634;50.852;5.676;2022-12-29T09:59:19;4.85;;;1.15;;
24467;SDS011;12634;50.852;5.676;2022-12-29T10:01:49;8.95;;;1.50;;
24467;SDS011;12634;50.852;5.676;2022-12-29T10:04:23;3.42;;;1.15;;
24467;SDS011;12634;50.852;5.676;2022-12-29T10:06:54;7.03;;;1.20;;
24467;SDS011;12634;50.852;5.676;2022-12-29T10:09:30;7.07;;;1.00;;
24467;SDS011;12634;50.852;5.676;2022-12-29T10:12:03;6.03;;;1.40;;
24467;SDS011;12634;50.852;5.676;2022-12-29T10:14:43;9.10;;;1.20;;
24467;SDS011;12634;50.852;5.676;2022-12-29T10:17:26;8.15;;;1.52;;
24467;SDS011;12634;50.852;5.676;2022-12-29T10:20:04;9.57;;;1.40;;
24467;SDS011;12634;50.852;5.676;2022-12-29T10:22:45;7.03;;;1.07;;
24467;SDS011;12634;50.852;5.676;2022-12-29T10:25:24;6.15;;;1.02;;
24467;SDS011;12634;50.852;5.676;2022-12-29T10:27:56;5.75;;;1.00;;
24467;SDS011;12634;50.852;5.676;2022-12-29T10:30:26;5.88;;;0.85;;
24467;SDS011;12634;50.852;5.676;2022-12-29T10:32:55;7.75;;;1.08;;
24467;SDS011;12634;50.852;5.676;2022-12-29T10:35:28;6.05;;;1.38;;
24467;SDS011;12634;50.852;5.676;2022-12-29T10:38:01;6.30;;;1.17;;
24467;SDS011;12634;50.852;5.676;2022-12-29T10:40:38;8.40;;;1.60;;
24467;SDS011;12634;50.852;5.676;2022-12-29T10:43:13;6.90;;;1.08;;
24467;SDS011;12634;50.852;5.676;2022-12-29T10:45:48;4.78;;;1.10;;
24467;SDS011;12634;50.852;5.676;2022-12-29T10:48:19;8.65;;;1.55;;
24467;SDS011;12634;50.852;5.676;2022-12-29T10:50:49;4.90;;;1.00;;
24467;SDS011;12634;50.852;5.676;2022-12-29T10:53:20;6.93;;;1.20;;
24467;SDS011;12634;50.852;5.676;2022-12-29T10:55:50;5.70;;;1.00;;
24467;SDS011;12634;50.852;5.676;2022-12-29T10:58:18;3.20;;;0.85;;
24467;SDS011;12634;50.852;5.676;2022-12-29T11:00:49;8.35;;;1.40;;
24467;SDS011;12634;50.852;5.676;2022-12-29T11:06:18;9.20;;;1.20;;
24467;SDS011;12634;50.852;5.676;2022-12-29T11:08:52;7.68;;;1.20;;
24467;SDS011;12634;50.852;5.676;2022-12-29T11:11:23;3.65;;;0.77;;
24467;SDS011;12634;50.852;5.676;2022-12-29T11:13:55;15.07;;;1.60;;
24467;SDS011;12634;50.852;5.676;2022-12-29T11:16:28;5.55;;;1.63;;
24467;SDS011;12634;50.852;5.676;2022-12-29T11:18:57;6.80;;;1.17;;
24467;SDS011;12634;50.852;5.676;2022-12-29T11:21:27;6.63;;;1.10;;
24467;SDS011;12634;50.852;5.676;2022-12-29T11:23:59;4.85;;;0.93;;
24467;SDS011;12634;50.852;5.676;2022-12-29T11:26:27;7.93;;;1.10;;
24467;SDS011;12634;50.852;5.676;2022-12-29T11:29:14;8.23;;;1.05;;
24467;SDS011;12634;50.852;5.676;2022-12-29T11:31:48;6.90;;;1.17;;
24467;SDS011;12634;50.852;5.676;2022-12-29T11:34:17;9.25;;;1.55;;
24467;SDS011;12634;50.852;5.676;2022-12-29T11:36:48;5.25;;;1.30;;
24467;SDS011;12634;50.852;5.676;2022-12-29T11:39:25;2.28;;;0.65;;
24467;SDS011;12634;50.852;5.676;2022-12-29T11:41:59;4.40;;;0.80;;
24467;SDS011;12634;50.852;5.676;2022-12-29T11:44:28;7.00;;;1.42;;
24467;SDS011;12634;50.852;5.676;2022-12-29T11:47:00;4.53;;;1.00;;
24467;SDS011;12634;50.852;5.676;2022-12-29T11:49:28;5.72;;;1.48;;
24467;SDS011;12634;50.852;5.676;2022-12-29T11:51:57;10.52;;;1.05;;
24467;SDS011;12634;50.852;5.676;2022-12-29T11:54:25;3.97;;;1.05;;
24467;SDS011;12634;50.852;5.676;2022-12-29T11:56:56;6.13;;;1.85;;
24467;SDS011;12634;50.852;5.676;2022-12-29T11:59:34;7.30;;;0.85;;
24467;SDS011;12634;50.852;5.676;2022-12-29T12:05:13;5.43;;;1.17;;
24467;SDS011;12634;50.852;5.676;2022-12-29T12:07:49;5.57;;;1.20;;
24467;SDS011;12634;50.852;5.676;2022-12-29T12:10:22;6.15;;;1.05;;
24467;SDS011;12634;50.852;5.676;2022-12-29T12:12:55;9.98;;;1.67;;
24467;SDS011;12634;50.852;5.676;2022-12-29T12:15:29;6.63;;;1.55;;
24467;SDS011;12634;50.852;5.676;2022-12-29T12:18:05;4.68;;;1.05;;
24467;SDS011;12634;50.852;5.676;2022-12-29T12:20:42;5.87;;;0.93;;
24467;SDS011;12634;50.852;5.676;2022-12-29T12:23:15;5.82;;;0.90;;
24467;SDS011;12634;50.852;5.676;2022-12-29T12:25:55;8.13;;;1.30;;
24467;SDS011;12634;50.852;5.676;2022-12-29T12:28:30;8.02;;;1.25;;
24467;SDS011;12634;50.852;5.676;2022-12-29T12:31:05;6.35;;;1.52;;
24467;SDS011;12634;50.852;5.676;2022-12-29T12:33:42;7.30;;;1.30;;
24467;SDS011;12634;50.852;5.676;2022-12-29T12:36:21;5.53;;;1.15;;
24467;SDS011;12634;50.852;5.676;2022-12-29T12:39:01;5.15;;;1.27;;
24467;SDS011;12634;50.852;5.676;2022-12-29T12:41:37;8.35;;;1.23;;
24467;SDS011;12634;50.852;5.676;2022-12-29T12:44:18;4.35;;;1.10;;
24467;SDS011;12634;50.852;5.676;2022-12-29T12:46:53;5.20;;;1.67;;
24467;SDS011;12634;50.852;5.676;2022-12-29T12:49:47;5.78;;;0.95;;
24467;SDS011;12634;50.852;5.676;2022-12-29T12:52:44;8.07;;;1.10;;
24467;SDS011;12634;50.852;5.676;2022-12-29T12:55:37;5.75;;;1.50;;
24467;SDS011;12634;50.852;5.676;2022-12-29T12:58:16;6.10;;;1.08;;
24467;SDS011;12634;50.852;5.676;2022-12-29T13:00:54;7.50;;;1.42;;
24467;SDS011;12634;50.852;5.676;2022-12-29T13:03:34;6.40;;;1.35;;
24467;SDS011;12634;50.852;5.676;2022-12-29T13:06:15;9.73;;;1.45;;
24467;SDS011;12634;50.852;5.676;2022-12-29T13:09:02;7.82;;;1.48;;
24467;SDS011;12634;50.852;5.676;2022-12-29T13:11:44;7.35;;;1.10;;
24467;SDS011;12634;50.852;5.676;2022-12-29T13:14:23;5.63;;;1.30;;
24467;SDS011;12634;50.852;5.676;2022-12-29T13:17:02;8.07;;;1.55;;
24467;SDS011;12634;50.852;5.676;2022-12-29T13:19:38;6.43;;;1.10;;
24467;SDS011;12634;50.852;5.676;2022-12-29T13:22:09;7.05;;;1.27;;
24467;SDS011;12634;50.852;5.676;2022-12-29T13:24:45;8.60;;;1.40;;
24467;SDS011;12634;50.852;5.676;2022-12-29T13:27:23;8.63;;;1.38;;
24467;SDS011;12634;50.852;5.676;2022-12-29T13:30:00;4.25;;;0.95;;
24467;SDS011;12634;50.852;5.676;2022-12-29T13:32:35;4.97;;;1.13;;
24467;SDS011;12634;50.852;5.676;2022-12-29T13:35:19;5.90;;;1.08;;
24467;SDS011;12634;50.852;5.676;2022-12-29T13:37:58;6.45;;;1.02;;
24467;SDS011;12634;50.852;5.676;2022-12-29T13:40:32;5.37;;;1.40;;
24467;SDS011;12634;50.852;5.676;2022-12-29T13:43:05;7.88;;;1.23;;
24467;SDS011;12634;50.852;5.676;2022-12-29T13:45:33;5.03;;;1.00;;
24467;SDS011;12634;50.852;5.676;2022-12-29T13:48:03;3.65;;;1.00;;
24467;SDS011;12634;50.852;5.676;2022-12-29T13:50:36;8.80;;;1.73;;
24467;SDS011;12634;50.852;5.676;2022-12-29T13:53:06;6.05;;;1.67;;
24467;SDS011;12634;50.852;5.676;2022-12-29T13:55:45;5.70;;;1.58;;
24467;SDS011;12634;50.852;5.676;2022-12-29T13:58:20;7.47;;;1.38;;
24467;SDS011;12634;50.852;5.676;2022-12-29T14:00:55;6.18;;;1.27;;
24467;SDS011;12634;50.852;5.676;2022-12-29T14:03:34;9.20;;;1.40;;
24467;SDS011;12634;50.852;5.676;2022-12-29T14:06:12;2.67;;;0.73;;
24467;SDS011;12634;50.852;5.676;2022-12-29T14:08:42;3.47;;;0.85;;
24467;SDS011;12634;50.852;5.676;2022-12-29T14:11:10;8.50;;;1.45;;
24467;SDS011;12634;50.852;5.676;2022-12-29T14:13:42;12.45;;;1.50;;
24467;SDS011;12634;50.852;5.676;2022-12-29T14:16:24;5.95;;;1.17;;
24467;SDS011;12634;50.852;5.676;2022-12-29T14:18:54;7.40;;;1.45;;
24467;SDS011;12634;50.852;5.676;2022-12-29T14:21:23;9.65;;;1.60;;
24467;SDS011;12634;50.852;5.676;2022-12-29T14:23:56;5.95;;;1.33;;
24467;SDS011;12634;50.852;5.676;2022-12-29T14:26:43;10.32;;;1.73;;
24467;SDS011;12634;50.852;5.676;2022-12-29T14:29:41;4.40;;;1.02;;
24467;SDS011;12634;50.852;5.676;2022-12-29T14:38:07;8.98;;;1.45;;
24467;SDS011;12634;50.852;5.676;2022-12-29T14:43:51;6.38;;;1.50;;
24467;SDS011;12634;50.852;5.676;2022-12-29T14:46:25;14.82;;;1.67;;
24467;SDS011;12634;50.852;5.676;2022-12-29T14:49:22;6.68;;;1.48;;
24467;SDS011;12634;50.852;5.676;2022-12-29T14:51:52;7.72;;;1.30;;
24467;SDS011;12634;50.852;5.676;2022-12-29T14:54:49;7.30;;;1.17;;
24467;SDS011;12634;50.852;5.676;2022-12-29T15:00:07;8.40;;;1.98;;
24467;SDS011;12634;50.852;5.676;2022-12-29T15:02:46;6.00;;;1.38;;
24467;SDS011;12634;50.852;5.676;2022-12-29T15:05:27;9.15;;;1.50;;
24467;SDS011;12634;50.852;5.676;2022-12-29T15:07:58;6.63;;;1.08;;
24467;SDS011;12634;50.852;5.676;2022-12-29T15:10:26;9.90;;;1.40;;
24467;SDS011;12634;50.852;5.676;2022-12-29T15:13:04;6.53;;;1.48;;
24467;SDS011;12634;50.852;5.676;2022-12-29T15:15:40;6.05;;;1.20;;
24467;SDS011;12634;50.852;5.676;2022-12-29T15:18:19;8.80;;;1.45;;
24467;SDS011;12634;50.852;5.676;2022-12-29T15:20:50;7.95;;;1.58;;
24467;SDS011;12634;50.852;5.676;2022-12-29T15:23:20;7.43;;;1.33;;
24467;SDS011;12634;50.852;5.676;2022-12-29T15:25:49;6.90;;;1.25;;
24467;SDS011;12634;50.852;5.676;2022-12-29T15:28:19;6.00;;;1.40;;
24467;SDS011;12634;50.852;5.676;2022-12-29T15:30:51;6.47;;;1.65;;
24467;SDS011;12634;50.852;5.676;2022-12-29T15:33:22;8.02;;;1.17;;
24467;SDS011;12634;50.852;5.676;2022-12-29T15:35:53;6.80;;;1.48;;
24467;SDS011;12634;50.852;5.676;2022-12-29T15:38:22;3.47;;;0.77;;
24467;SDS011;12634;50.852;5.676;2022-12-29T15:40:52;9.52;;;1.77;;
24467;SDS011;12634;50.852;5.676;2022-12-29T15:43:25;7.80;;;1.52;;
24467;SDS011;12634;50.852;5.676;2022-12-29T15:46:12;6.82;;;1.38;;
24467;SDS011;12634;50.852;5.676;2022-12-29T15:48:41;7.70;;;1.70;;